AirNav   TITAN Aviation Fuels
 
 1646 users online  

3TA5 Blanco Landing Airport
Blanco, Texas, USA

GOING TO BLANCO?


FAA INFORMATION EFFECTIVE 19 MAY 2022

Location

FAA Identifier: 3TA5
Lat/Long: 30-07-20.8800N 098-22-29.2200W
30-07.348000N 098-22.487000W
30.1224667,-98.3747833
(estimated)
Elevation: 1460 ft. / 445 m (estimated)
Variation: 07E (1985)
From city: 3 miles NE of BLANCO, TX
Time zone: UTC -5 (UTC -6 during Standard Time)
Zip code: 78606

Airport Operations

Airport use: Private use. Permission required prior to landing
Activation date: 03/1981
Control tower: no
ARTCC: HOUSTON CENTER
FSS: SAN ANGELO FLIGHT SERVICE STATION
Attendance: UNATNDD
Wind indicator: yes
Segmented circle: no

Airport Communications

CTAF: 122.9

Nearby radio navigation aids

VOR radial/distance  VOR name  Freq  Var
STVr098/17.9STONEWALL VORTAC113.8008E
SATr001/29.1SAN ANTONIO VORTAC116.8008E
RNDr348/36.5RANDOLPH VORTAC112.3005E

Airport Services

Runway Information

Runway 1/19

Dimensions: 3450 x 27 ft. / 1052 x 8 m
Surface: asphalt
RUNWAY 1  RUNWAY 19
Traffic pattern: leftleft

Airport Ownership and Management from official FAA records

Ownership: Privately-owned
Owner: THE LANDING P.O.A.
3238 HWY 281 N
BLANCO, TX 78606
Phone (510) 910-3269
Manager: ROBERT GARCIA JR
3238 HWY 281 N
BLANCO, TX 78606
Phone (915) 525-7792
OTR (512) 461-5158

Airport Operational Statistics

Aircraft based on the field: 9
Single engine airplanes: 8
Helicopters: 1
    

Additional Remarks

FOR CD CTC HOUSTON ARTCC AT 281-230-5622.
RCMD OVER-FLY FLD TO INSURE RWY CLEAR OF WILDLIFE & MAINT CREWS AND TO CHECK WIND DRCTN FOR LNDG.
TALL TREES AT SOUTH AER TO INSURE PROPER CLNC.

Instrument Procedures

There are no published instrument procedures at 3TA5.

Some nearby airports with instrument procedures:

3R9 - Lakeway Airpark (24 nm NE)
T82 - Gillespie County Airport (29 nm W)
5C1 - Boerne Stage Field Airport (29 nm SW)
KHYI - San Marcos Regional Airport (30 nm SE)
KBAZ - New Braunfels National Airport (30 nm SE)
 
Loc | Ops | Rwys | IFR | FBO | Links
Com | Nav | Svcs | Stats | Notes
Area around 3TA5 (Blanco Landing Airport)
 
Road maps at: MapQuest Bing Google
 
Aerial photo
WARNING: Photo may not be current or correct
Aerial photo of 3TA5 (Blanco Landing Airport)
Photo taken 18-Jul-2017
looking south.

Do you have a better or more recent aerial photo of Blanco Landing Airport that you would like to share? If so, please send us your photo.

 
Sectional chart

 
Airport distance calculator
Flying to Blanco Landing Airport? Find the distance to fly.

From to 3TA5

Sunrise and sunset
Times for 24-May-2022
 Local
(UTC-5)
 Zulu
(UTC)
Morning civil twilight06:0911:09
Sunrise06:3611:36
Sunset20:2501:25
Evening civil twilight20:5101:51

Current date and time
Zulu (UTC)  24-May-2022 14:53:04
Local (UTC-5)  24-May-2022 09:53:04
 
METAR
KDZB 
24nm N 
241435Z AUTO 16010G14KT 10SM SCT015 25/19 A2979 RMK AO2 T02460189
KT82 
29nm W 
241430Z AUTO 19014G18KT 10SM CLR 23/15 A2981 RMK AO2 T02300150
K5C1 
29nm SW 
241435Z AUTO 15008KT 10SM CLR 22/16 A2981 RMK AO1
KBAZ 
30nm SE 
241441Z 14004KT 10SM SCT009 24/22 A2978 RMK AO2 T02440217
KHYI 
30nm SE 
241432Z 17008KT 6SM BR BKN011 25/23 A2981 RMK AO2
KRYW 
31nm NE 
241435Z AUTO 14005KT 10SM BKN007 OVC016 23/22 A2981 RMK AO2 T02250221
KSAT 
36nm S 
241351Z 11003KT 10SM FEW015 OVC250 23/18 A2980 RMK AO2 SLP075 T02330183
KAUS 
36nm E 
241404Z 13006KT 10SM FEW013 SCT024 BKN200 24/21 A2979 RMK AO2 T02440211
KATT 
37nm E 
241351Z AUTO 13004KT 10SM BKN010 OVC016 23/19 A2980 RMK AO2 CIG 009V013 SLP078 T02330194
KRND 
37nm S 
241356Z AUTO 13003KT 10SM FEW005 22/22 A2977 RMK AO2 SLP074 T02230221
TAF
KSAT 
36nm S 
241120Z 2412/2518 13008KT P6SM SCT025 BKN250 FM241600 18013KT P6SM BKN040 FM242000 18014KT P6SM VCSH BKN045 FM250600 07009KT P6SM +SHRA VCTS BKN030CB PROB30 2506/2512 VRB25KT 3SM +TSRA BR OVC015CB FM251200 01010KT P6SM VCSH FEW009 OVC012
KAUS 
36nm E 
241422Z 2414/2518 13006KT P6SM FEW013 SCT024 BKN200 TEMPO 2414/2415 BKN025 FM241500 17011KT P6SM BKN040 FM241900 18014G24KT P6SM VCSH BKN045 FM250500 VRB10KT P6SM +SHRA VCTS BKN025CB PROB30 2505/2511 VRB25KT 3SM +TSRA BR OVC015CB FM251200 18009KT P6SM VCSH FEW009 OVC012
KRND 
37nm S 
241205Z 2412/2516 14009KT 2400 BR OVC002 QNH2970INS BECMG 2412/2413 15009KT 4800 BR BKN009 OVC020 QNH2970INS BECMG 2413/2414 14012KT 9999 NSW SCT016 BKN024 QNH2972INS BECMG 2417/2418 16012G18KT 9999 VCSH BKN030 BKN045 QNH2967INS TEMPO 2422/2502 VRB25G35KT 3200 TSRAGR BKN025CB OVC045 BECMG 2502/2503 17012KT 9999 VCTS SCT007 BKN015CB OVC023 QNH2963INS BECMG 2505/2506 VRB06KT 8000 -SHRA VCTS BKN008 BKN016CB OVC023 QNH2972INS TEMPO 2508/2511 VRB25G45KT 1600 +TSRAGR SCT015 BKN025CB OVC030 BECMG 2512/
NOTAMs
Click for the latest NOTAMs
NOTAMs are issued by the DoD/FAA and will open in a separate window not controlled by AirNav.

 

 
 

Would you like to see your business listed on this page?

 If your business provides an interesting product or service to pilots, flight crews, aircraft, or users of the Blanco Landing Airport, you should consider listing it here.  To start the listing process, click on the button below
 
Add a business
 

Other Pages about Blanco Landing Airport

Update a link
 
Copyright © AirNav, LLC. All rights reserved. Privacy Policy  Contact